Time;durP1;ratioP1;P1;durP2;ratioP2;P2;SDS_P1;SDS_P2;PMS_P1;PMS_P2;Temp;Humidity;BMP_temperature;BMP_pressure;BME280_temperature;BME280_humidity;BME280_pressure;Samples;Min_cycle;Max_cycle;Signal;HPM_P1;HPM_P2
2022/10/01 00:01:52;;;;;;;5.40;2.70;;;15.00;91.20;;;;;;4933099;29;20842;-74
2022/10/01 00:04:18;;;;;;;3.27;2.93;;;15.00;91.20;;;;;;4935270;29;20506;-74
2022/10/01 00:06:44;;;;;;;5.60;3.20;;;15.00;91.20;;;;;;4934678;29;20545;-74
2022/10/01 00:09:10;;;;;;;2.97;2.67;;;15.00;91.20;;;;;;4933148;29;20521;-74
2022/10/01 00:11:36;;;;;;;4.00;3.10;;;15.00;91.20;;;;;;4939752;29;20431;-73
2022/10/01 00:14:02;;;;;;;3.30;2.97;;;15.00;91.30;;;;;;4940077;29;20869;-74
2022/10/01 00:16:29;;;;;;;2.90;2.63;;;15.00;91.40;;;;;;4959924;28;20442;-73
2022/10/01 00:18:56;;;;;;;3.47;3.17;;;15.00;91.50;;;;;;4958585;28;20415;-73
2022/10/01 00:21:30;;;;;;;4.77;3.23;;;15.00;91.60;;;;;;4941488;29;20440;-74
2022/10/01 00:24:04;;;;;;;2.87;2.63;;;15.00;91.70;;;;;;4958104;28;20428;-74
2022/10/01 00:26:35;;;;;;;4.23;2.83;;;15.00;91.90;;;;;;4957627;29;20459;-74
2022/10/01 00:29:05;;;;;;;2.97;2.67;;;15.00;92.00;;;;;;4940025;29;20474;-73
2022/10/01 00:31:34;;;;;;;3.17;2.87;;;14.90;92.10;;;;;;4943211;29;20419;-73
2022/10/01 00:34:02;;;;;;;4.13;3.13;;;15.00;92.20;;;;;;4924453;29;20455;-73
2022/10/01 00:36:28;;;;;;;3.77;3.10;;;14.90;92.20;;;;;;4923895;29;20466;-73
2022/10/01 00:38:59;;;;;;;5.33;3.03;;;14.90;92.30;;;;;;4917564;29;20444;-74
2022/10/01 00:41:33;;;;;;;4.00;3.20;;;14.90;92.40;;;;;;4927309;29;20443;-73
2022/10/01 00:44:21;;;;;;;3.47;2.83;;;14.90;92.50;;;;;;4922446;29;20438;-73
2022/10/01 00:46:49;;;;;;;4.57;2.57;;;14.90;92.60;;;;;;4937953;29;20456;-73
2022/10/01 00:49:19;;;;;;;5.00;2.97;;;14.90;92.70;;;;;;4958667;29;20469;-73
2022/10/01 00:51:57;;;;;;;6.80;3.40;;;14.90;93.20;;;;;;4959862;28;20417;-73
2022/10/01 00:54:33;;;;;;;3.97;2.80;;;14.90;92.90;;;;;;4960012;28;20415;-73
2022/10/01 00:57:01;;;;;;;3.30;3.00;;;14.90;93.00;;;;;;4942723;29;20450;-74
2022/10/01 00:59:28;;;;;;;3.30;3.00;;;14.90;93.10;;;;;;4957899;28;20965;-74
2022/10/01 01:01:57;;;;;;;3.87;3.33;;;14.90;93.20;;;;;;4941486;29;20425;-74
2022/10/01 01:04:26;;;;;;;11.60;3.13;;;14.90;93.30;;;;;;4956998;28;20446;-73
2022/10/01 01:06:56;;;;;;;3.83;3.43;;;14.90;93.30;;;;;;4941762;29;20455;-74
2022/10/01 01:09:33;;;;;;;3.07;2.77;;;14.90;93.40;;;;;;4939181;29;20478;-74
2022/10/01 01:12:33;;;;;;;2.93;2.67;;;14.90;93.50;;;;;;4920768;29;20546;-73
2022/10/01 01:15:20;;;;;;;4.10;2.90;;;14.90;93.50;;;;;;4920249;29;20811;-74
2022/10/01 01:18:05;;;;;;;4.03;3.20;;;14.90;93.60;;;;;;4920340;29;20504;-73
2022/10/01 01:20:57;;;;;;;3.00;2.70;;;14.80;93.60;;;;;;4920276;29;20519;-73
2022/10/01 01:23:35;;;;;;;3.40;2.90;;;14.80;93.70;;;;;;4915871;29;20407;-73
2022/10/01 01:26:21;;;;;;;4.40;3.57;;;14.80;93.80;;;;;;4915898;29;21026;-73
2022/10/01 01:28:56;;;;;;;3.17;2.87;;;14.80;94.00;;;;;;4932644;29;21011;-73
2022/10/01 01:31:32;;;;;;;3.40;3.10;;;14.80;94.10;;;;;;4937379;29;20407;-73
2022/10/01 01:34:02;;;;;;;3.93;2.80;;;14.80;94.20;;;;;;4936360;29;20816;-73
2022/10/01 01:36:34;;;;;;;4.70;2.63;;;14.80;94.30;;;;;;4935924;29;20431;-74
2022/10/01 01:39:03;;;;;;;3.40;3.10;;;14.80;94.30;;;;;;4918833;29;20535;-73
2022/10/01 01:41:35;;;;;;;3.50;2.83;;;14.80;94.40;;;;;;4935910;29;21250;-73
2022/10/01 01:44:11;;;;;;;3.37;3.07;;;14.80;94.40;;;;;;4935082;29;20457;-73
2022/10/01 01:46:42;;;;;;;3.70;3.40;;;14.80;94.50;;;;;;4918973;29;20456;-73
2022/10/01 01:49:15;;;;;;;3.63;2.80;;;14.80;94.50;;;;;;4935751;29;20453;-73
2022/10/01 01:52:07;;;;;;;3.03;2.70;;;14.80;94.50;;;;;;4920465;29;20989;-73
2022/10/01 01:54:35;;;;;;;5.10;3.10;;;14.80;94.60;;;;;;4935909;29;20415;-73
2022/10/01 01:57:03;;;;;;;3.97;2.77;;;14.80;94.60;;;;;;4936763;29;20478;-73
2022/10/01 01:59:30;;;;;;;3.53;3.23;;;14.80;94.70;;;;;;4919310;29;20432;-73
2022/10/01 02:01:57;;;;;;;4.80;3.13;;;14.80;94.70;;;;;;4919351;29;20499;-73
2022/10/01 02:04:26;;;;;;;3.90;3.00;;;14.70;94.70;;;;;;4915528;29;20476;-73
2022/10/01 02:07:15;;;;;;;2.60;2.30;;;14.70;94.80;;;;;;4919730;29;21209;-74
2022/10/01 02:09:48;;;;;;;3.17;2.80;;;14.70;94.90;;;;;;4938534;29;20470;-73
2022/10/01 02:12:30;;;;;;;2.97;2.70;;;14.80;94.90;;;;;;4922851;29;20485;-74
2022/10/01 02:15:05;;;;;;;3.37;3.07;;;14.70;94.90;;;;;;4955657;28;20917;-73
2022/10/01 02:17:51;;;;;;;4.13;2.70;;;14.70;94.90;;;;;;4938674;29;20415;-73
2022/10/01 02:20:48;;;;;;;4.40;3.27;;;14.70;94.90;;;;;;4953493;29;21006;-73
2022/10/01 02:23:21;;;;;;;3.57;2.90;;;14.70;94.90;;;;;;4921705;29;20522;-73
2022/10/01 02:25:57;;;;;;;4.67;3.13;;;14.70;94.90;;;;;;4934335;29;20450;-74
2022/10/01 02:28:26;;;;;;;3.50;3.20;;;14.70;94.90;;;;;;4922521;28;21024;-74
2022/10/01 02:30:56;;;;;;;3.07;2.77;;;14.70;95.00;;;;;;4933005;29;20515;-73
2022/10/01 02:33:34;;;;;;;4.43;3.17;;;14.70;95.10;;;;;;4933475;29;20432;-73
2022/10/01 02:36:03;;;;;;;4.23;2.83;;;14.70;95.10;;;;;;4935183;29;20490;-73
2022/10/01 02:38:33;;;;;;;2.87;2.57;;;14.70;95.10;;;;;;4935654;29;20466;-73
2022/10/01 02:41:10;;;;;;;3.20;2.50;;;14.70;95.20;;;;;;4932955;29;20974;-73
2022/10/01 02:43:42;;;;;;;6.23;3.40;;;14.70;95.30;;;;;;4935092;29;20424;-73
2022/10/01 02:46:33;;;;;;;5.37;3.27;;;14.70;95.30;;;;;;4942471;29;20999;-73
2022/10/01 02:49:01;;;;;;;3.17;2.70;;;14.70;95.40;;;;;;4950463;29;20547;-73
2022/10/01 02:51:38;;;;;;;3.60;3.17;;;14.70;95.40;;;;;;4935520;29;20415;-74
2022/10/01 02:54:13;;;;;;;3.20;2.77;;;14.70;95.50;;;;;;4915895;29;20974;-73
2022/10/01 02:59:25;;;;;;;3.57;2.97;;;14.70;95.70;;;;;;4916378;29;20486;-73
2022/10/01 03:01:53;;;;;;;3.50;3.00;;;14.70;95.70;;;;;;4914936;29;20420;-74
2022/10/01 03:04:19;;;;;;;3.77;2.70;;;14.70;95.80;;;;;;4944894;29;20435;-74
2022/10/01 03:06:45;;;;;;;2.97;2.67;;;14.70;95.90;;;;;;4901861;29;20456;-73
2022/10/01 03:09:14;;;;;;;4.70;3.07;;;14.70;95.90;;;;;;4950500;29;20987;-73
2022/10/01 03:11:42;;;;;;;4.03;2.70;;;14.60;95.90;;;;;;4921753;29;20442;-73
2022/10/01 03:14:09;;;;;;;6.60;2.87;;;14.60;95.90;;;;;;4916641;29;20492;-73
2022/10/01 03:16:38;;;;;;;3.10;2.73;;;14.60;96.00;;;;;;4915669;29;20436;-73
2022/10/01 03:19:06;;;;;;;3.50;2.90;;;14.60;96.10;;;;;;4914836;29;20572;-73
2022/10/01 03:24:18;;;;;;;3.73;2.70;;;14.60;96.10;;;;;;4941146;29;20839;-71
2022/10/01 03:26:49;;;;;;;5.07;3.03;;;14.60;96.20;;;;;;4967881;28;20443;-70
2022/10/01 03:29:15;;;;;;;4.90;3.07;;;14.60;96.20;;;;;;4954593;28;20446;-70
2022/10/01 03:31:46;;;;;;;4.43;2.80;;;14.60;96.40;;;;;;4953538;29;20438;-71
2022/10/01 03:34:12;;;;;;;4.60;2.70;;;14.60;96.40;;;;;;4953522;29;20431;-71
2022/10/01 03:36:43;;;;;;;3.50;2.60;;;14.60;96.50;;;;;;4953964;28;20863;-71
2022/10/01 03:39:12;;;;;;;3.43;2.77;;;14.60;96.50;;;;;;4928996;29;20975;-70
2022/10/01 03:41:40;;;;;;;3.80;2.27;;;14.60;96.60;;;;;;4930363;29;20564;-71
2022/10/01 03:44:08;;;;;;;3.23;2.73;;;14.60;96.70;;;;;;4950525;28;20800;-71
2022/10/01 03:46:34;;;;;;;3.90;2.50;;;14.60;96.70;;;;;;4953310;28;20494;-71
2022/10/01 03:49:00;;;;;;;3.40;3.10;;;14.60;96.80;;;;;;4945354;28;20488;-71
2022/10/01 03:51:27;;;;;;;3.00;2.80;;;14.50;96.80;;;;;;4953113;29;20414;-71
2022/10/01 03:53:54;;;;;;;2.70;2.33;;;14.60;96.90;;;;;;4952724;29;20990;-71
2022/10/01 03:56:23;;;;;;;2.93;2.40;;;14.50;96.90;;;;;;4949217;28;21021;-71
2022/10/01 03:58:49;;;;;;;3.50;2.63;;;14.50;96.90;;;;;;4934464;29;20438;-71
2022/10/01 04:01:15;;;;;;;3.73;2.80;;;14.50;97.40;;;;;;4935070;29;20408;-71
2022/10/01 04:03:48;;;;;;;3.00;2.33;;;14.50;97.10;;;;;;4924364;29;20469;-71
2022/10/01 04:06:16;;;;;;;4.30;2.77;;;14.50;97.10;;;;;;4934277;29;20454;-71
2022/10/01 04:08:43;;;;;;;2.43;2.20;;;14.50;97.10;;;;;;4934744;29;20479;-71
2022/10/01 04:11:12;;;;;;;5.30;3.00;;;14.50;97.10;;;;;;4953054;29;20484;-71
2022/10/01 04:13:38;;;;;;;5.10;2.27;;;14.50;97.20;;;;;;4936841;29;20439;-70
2022/10/01 04:16:08;;;;;;;3.03;2.67;;;14.50;97.20;;;;;;4952522;29;20458;-71
2022/10/01 04:18:34;;;;;;;2.60;2.40;;;14.50;97.20;;;;;;4946205;28;20432;-70
2022/10/01 04:21:02;;;;;;;4.97;2.23;;;14.50;97.10;;;;;;4933534;29;20436;-71
2022/10/01 04:23:30;;;;;;;2.37;2.17;;;14.50;97.20;;;;;;4923343;29;20452;-71
2022/10/01 04:26:03;;;;;;;2.67;2.17;;;14.50;97.20;;;;;;4936115;29;20467;-71
2022/10/01 04:28:30;;;;;;;3.53;2.30;;;14.50;97.20;;;;;;4939060;29;20466;-71
2022/10/01 04:33:45;;;;;;;2.50;2.30;;;14.50;97.20;;;;;;4954563;28;20488;-71
2022/10/01 04:36:12;;;;;;;3.27;2.37;;;14.50;97.30;;;;;;4952276;28;20463;-71
2022/10/01 04:38:38;;;;;;;2.90;1.93;;;14.50;97.30;;;;;;4948302;28;20443;-71
2022/10/01 04:41:04;;;;;;;2.57;2.37;;;14.50;97.30;;;;;;4933666;29;20594;-71
2022/10/01 04:43:30;;;;;;;2.63;2.43;;;14.50;97.30;;;;;;4947924;29;20549;-71
2022/10/01 04:45:58;;;;;;;2.17;1.90;;;14.50;97.40;;;;;;4945866;29;20462;-71
2022/10/01 04:48:26;;;;;;;2.50;2.20;;;14.50;97.40;;;;;;4933239;29;20471;-71
2022/10/01 04:50:55;;;;;;;2.77;2.50;;;14.50;97.40;;;;;;4933499;29;20439;-71
2022/10/01 04:53:46;;;;;;;2.33;2.10;;;14.50;97.40;;;;;;4947535;29;20919;-71
2022/10/01 04:56:17;;;;;;;2.53;1.80;;;14.50;97.40;;;;;;4928045;29;20984;-71
2022/10/01 04:58:46;;;;;;;2.30;2.10;;;14.50;97.40;;;;;;4956359;29;20426;-71
2022/10/01 05:01:12;;;;;;;2.20;1.73;;;14.50;97.40;;;;;;4940770;29;20419;-71
2022/10/01 05:03:40;;;;;;;2.77;2.10;;;14.50;97.50;;;;;;4935022;29;20439;-71
2022/10/01 05:06:08;;;;;;;3.00;2.03;;;14.50;97.50;;;;;;4938699;29;20276;-71
2022/10/01 05:08:35;;;;;;;1.87;1.77;;;14.40;97.50;;;;;;4956407;28;20463;-71
2022/10/01 05:11:01;;;;;;;3.70;1.97;;;14.50;97.50;;;;;;4955934;29;20564;-71
2022/10/01 05:13:28;;;;;;;2.73;2.20;;;14.40;97.50;;;;;;4957321;28;20429;-71
2022/10/01 05:15:57;;;;;;;4.43;2.60;;;14.40;97.50;;;;;;4948588;28;20446;-71
2022/10/01 05:18:23;;;;;;;2.07;1.87;;;14.40;97.60;;;;;;4940343;29;20437;-71
2022/10/01 05:20:51;;;;;;;2.23;1.70;;;14.50;97.60;;;;;;4956504;29;20407;-71
2022/10/01 05:23:20;;;;;;;2.10;1.73;;;14.40;97.60;;;;;;4957662;28;20515;-71
2022/10/01 05:25:46;;;;;;;1.50;1.37;;;14.40;97.60;;;;;;4942823;29;20478;-71
2022/10/01 05:28:15;;;;;;;3.30;1.83;;;14.40;97.60;;;;;;4937193;29;20452;-71
2022/10/01 05:30:46;;;;;;;2.40;1.60;;;14.40;97.60;;;;;;4951662;29;20897;-71
2022/10/01 05:33:34;;;;;;;1.50;1.40;;;14.40;97.60;;;;;;4957105;29;20426;-71
2022/10/01 05:36:00;;;;;;;1.30;1.17;;;14.40;97.60;;;;;;4956147;28;20498;-71
2022/10/01 05:38:26;;;;;;;1.50;1.40;;;14.40;97.60;;;;;;4955931;29;20908;-71
2022/10/01 05:40:52;;;;;;;1.60;1.50;;;14.40;97.70;;;;;;4941233;28;20450;-71
2022/10/01 05:43:18;;;;;;;1.80;1.40;;;14.40;97.70;;;;;;4937970;29;20974;-71
2022/10/01 05:45:44;;;;;;;2.50;1.30;;;14.50;97.80;;;;;;4960957;28;20493;-71
2022/10/01 05:48:15;;;;;;;1.50;1.27;;;14.40;97.80;;;;;;4937160;29;20565;-71
2022/10/01 05:50:42;;;;;;;1.37;1.27;;;14.40;97.80;;;;;;4937628;29;20914;-71
2022/10/01 05:53:32;;;;;;;1.47;1.33;;;14.50;97.80;;;;;;4936303;29;20988;-71
2022/10/01 05:56:01;;;;;;;1.03;0.80;;;14.40;97.80;;;;;;4936680;29;20888;-71
2022/10/01 05:58:29;;;;;;;1.57;1.33;;;14.40;97.80;;;;;;4936613;29;20980;-71
2022/10/01 06:00:55;;;;;;;2.10;1.33;;;14.40;97.80;;;;;;4951332;29;21028;-71
2022/10/01 06:03:21;;;;;;;2.03;1.47;;;14.40;97.90;;;;;;4955517;29;20642;-71
2022/10/01 06:05:47;;;;;;;1.53;1.20;;;14.40;98.00;;;;;;4955002;29;20462;-70
2022/10/01 06:08:18;;;;;;;0.80;0.80;;;14.40;98.00;;;;;;4945200;28;20916;-71
2022/10/01 06:10:45;;;;;;;1.20;1.10;;;14.40;98.10;;;;;;4940455;29;20463;-71
2022/10/01 06:13:16;;;;;;;1.10;0.90;;;14.40;98.20;;;;;;4919044;29;20539;-71
2022/10/01 06:15:45;;;;;;;1.30;1.20;;;14.40;98.20;;;;;;4943339;29;20446;-71
2022/10/01 06:18:13;;;;;;;1.10;1.00;;;14.40;98.20;;;;;;4937559;29;20411;-71
2022/10/01 06:20:44;;;;;;;1.10;1.00;;;14.40;98.30;;;;;;4936975;29;20838;-71
2022/10/01 06:23:14;;;;;;;0.87;0.80;;;14.40;98.40;;;;;;4937232;29;20448;-71
2022/10/01 06:25:43;;;;;;;1.13;0.80;;;14.40;98.40;;;;;;4937093;29;21050;-71
2022/10/01 06:28:11;;;;;;;1.33;1.20;;;14.40;98.40;;;;;;4937003;29;20491;-71
2022/10/01 06:30:42;;;;;;;2.07;1.13;;;14.40;98.30;;;;;;4951251;29;20437;-71
2022/10/01 06:33:15;;;;;;;1.20;0.90;;;14.40;98.30;;;;;;4937759;29;20805;-71
2022/10/01 06:35:47;;;;;;;1.10;0.90;;;14.40;98.30;;;;;;4953406;29;20457;-71
2022/10/01 06:38:15;;;;;;;1.17;0.90;;;14.40;98.40;;;;;;4952897;29;20451;-71
2022/10/01 06:40:43;;;;;;;1.00;0.90;;;14.40;98.40;;;;;;4952700;28;20501;-72
2022/10/01 06:43:09;;;;;;;1.00;0.77;;;14.40;98.40;;;;;;4964050;28;20459;-71
2022/10/01 06:45:41;;;;;;;0.80;0.70;;;14.40;98.40;;;;;;4927010;29;20814;-71
2022/10/01 06:48:12;;;;;;;0.77;0.70;;;14.40;98.50;;;;;;4952923;28;20467;-71
2022/10/01 06:50:39;;;;;;;0.90;0.70;;;14.40;98.50;;;;;;4936571;29;20411;-71
2022/10/01 06:53:09;;;;;;;0.93;0.70;;;14.40;98.60;;;;;;4918690;29;20426;-71
2022/10/01 06:55:38;;;;;;;0.67;0.57;;;14.40;98.70;;;;;;4933782;29;20443;-71
2022/10/01 06:58:33;;;;;;;0.90;0.60;;;14.40;98.80;;;;;;4942893;29;20666;-71
2022/10/01 07:01:02;;;;;;;1.33;0.70;;;14.40;98.90;;;;;;4951027;29;20546;-71
2022/10/01 07:03:33;;;;;;;1.23;0.77;;;14.40;99.00;;;;;;4935363;29;20612;-71
2022/10/01 07:06:07;;;;;;;1.10;0.70;;;14.40;99.10;;;;;;4950299;29;20819;-71
2022/10/01 07:08:35;;;;;;;0.90;0.80;;;14.40;99.10;;;;;;4950533;29;20474;-72
2022/10/01 07:11:02;;;;;;;0.80;0.80;;;14.40;99.20;;;;;;4951481;29;20491;-71
2022/10/01 07:13:34;;;;;;;1.90;0.70;;;14.40;99.30;;;;;;4948152;29;20443;-71
2022/10/01 07:16:03;;;;;;;0.70;0.67;;;14.40;99.40;;;;;;4948445;29;20978;-71
2022/10/01 07:18:31;;;;;;;1.00;0.80;;;14.40;99.50;;;;;;4936757;29;20534;-71
2022/10/01 07:21:00;;;;;;;0.70;0.60;;;14.40;99.50;;;;;;4949042;28;20432;-71
2022/10/01 07:23:29;;;;;;;1.00;0.90;;;14.40;99.60;;;;;;4951049;29;20473;-72
2022/10/01 07:25:59;;;;;;;1.33;0.83;;;14.40;99.60;;;;;;4952458;29;20449;-72
2022/10/01 07:28:27;;;;;;;1.03;0.60;;;14.40;99.70;;;;;;4937103;29;20475;-72
2022/10/01 07:31:00;;;;;;;0.90;0.60;;;14.40;99.70;;;;;;4933896;29;20451;-72
2022/10/01 07:33:29;;;;;;;0.70;0.60;;;14.40;99.80;;;;;;4952442;29;20433;-72
2022/10/01 07:36:23;;;;;;;0.80;0.70;;;14.40;99.80;;;;;;4942308;29;20450;-72
2022/10/01 07:38:50;;;;;;;0.97;0.83;;;14.40;99.80;;;;;;4918581;29;20502;-72
2022/10/01 07:41:17;;;;;;;1.40;0.67;;;14.40;99.80;;;;;;4934757;29;20410;-72
2022/10/01 07:43:45;;;;;;;3.33;0.70;;;14.40;99.90;;;;;;4919326;29;20506;-73
2022/10/01 07:46:14;;;;;;;1.20;0.80;;;14.40;99.90;;;;;;4936333;29;20443;-73
2022/10/01 07:48:40;;;;;;;0.80;0.70;;;14.40;99.90;;;;;;4919321;29;21000;-73
2022/10/01 07:51:08;;;;;;;1.80;0.70;;;14.40;99.90;;;;;;4935206;29;20469;-73
2022/10/01 07:53:39;;;;;;;0.73;0.70;;;14.40;99.90;;;;;;4919308;29;21117;-72
2022/10/01 07:56:07;;;;;;;1.27;0.70;;;14.40;99.90;;;;;;4919272;29;20893;-72
2022/10/01 07:58:35;;;;;;;0.80;0.70;;;14.40;99.90;;;;;;4935950;29;20422;-72
2022/10/01 08:01:05;;;;;;;0.97;0.70;;;14.40;99.90;;;;;;4926798;29;20443;-72
2022/10/01 08:03:34;;;;;;;1.40;0.70;;;14.40;99.90;;;;;;4934938;29;20437;-72
2022/10/01 08:06:05;;;;;;;1.03;0.80;;;14.40;99.90;;;;;;4934306;29;20459;-71
2022/10/01 08:08:34;;;;;;;1.37;1.10;;;14.40;99.90;;;;;;4934553;29;20519;-72
2022/10/01 08:11:08;;;;;;;0.93;0.60;;;14.40;99.90;;;;;;4933574;29;20507;-71
2022/10/01 08:13:36;;;;;;;1.77;0.77;;;14.40;99.90;;;;;;4934938;29;20427;-70
2022/10/01 08:16:08;;;;;;;1.03;0.70;;;14.40;99.90;;;;;;4934566;29;20443;-71
2022/10/01 08:18:39;;;;;;;1.53;0.90;;;14.40;99.90;;;;;;4919307;29;20945;-73
2022/10/01 08:21:08;;;;;;;1.10;0.70;;;14.40;99.90;;;;;;4934537;29;20413;-73
2022/10/01 08:23:37;;;;;;;1.10;0.70;;;14.50;99.90;;;;;;4950545;29;20476;-73
2022/10/01 08:26:10;;;;;;;1.00;0.87;;;14.50;99.90;;;;;;4919515;29;20989;-73
2022/10/01 08:28:42;;;;;;;1.30;0.90;;;14.50;99.90;;;;;;4934769;29;20519;-73
2022/10/01 08:31:08;;;;;;;0.90;0.80;;;14.50;99.90;;;;;;4935835;29;20511;-72
2022/10/01 08:33:37;;;;;;;3.43;0.90;;;14.50;99.90;;;;;;4936337;29;20408;-74
2022/10/01 08:36:08;;;;;;;1.00;0.77;;;14.50;99.90;;;;;;4952109;28;20460;-74
2022/10/01 08:38:41;;;;;;;1.90;0.80;;;14.50;99.90;;;;;;4956306;28;20457;-73
2022/10/01 08:41:43;;;;;;;1.00;0.70;;;14.50;99.90;;;;;;4967615;28;20481;-74
2022/10/01 08:44:18;;;;;;;1.00;0.80;;;14.50;99.90;;;;;;4956761;29;20414;-71
2022/10/01 08:46:49;;;;;;;1.17;1.00;;;14.50;99.90;;;;;;4939893;29;20962;-72
2022/10/01 08:49:26;;;;;;;1.77;1.00;;;14.50;99.90;;;;;;4957409;29;20871;-71
2022/10/01 08:52:02;;;;;;;1.13;0.90;;;14.50;99.90;;;;;;4958353;28;20479;-72
2022/10/01 08:54:45;;;;;;;1.10;0.80;;;14.50;99.90;;;;;;4957197;28;20489;-71
2022/10/01 08:57:17;;;;;;;3.03;0.90;;;14.50;99.90;;;;;;4957131;29;20454;-71
2022/10/01 08:59:47;;;;;;;1.40;0.70;;;14.60;99.90;;;;;;4973304;28;20406;-71
2022/10/01 09:02:25;;;;;;;1.10;0.80;;;14.50;99.90;;;;;;4957130;29;20407;-71
2022/10/01 09:04:57;;;;;;;1.10;0.80;;;14.60;99.90;;;;;;4957155;29;20430;-71
2022/10/01 09:07:46;;;;;;;1.20;0.70;;;14.60;99.90;;;;;;4957117;29;20417;-71
2022/10/01 09:10:26;;;;;;;2.90;1.10;;;14.60;99.90;;;;;;4956855;29;20504;-71
2022/10/01 09:13:32;;;;;;;1.77;1.30;;;14.60;99.90;;;;;;4941381;29;20456;-72
2022/10/01 09:16:37;;;;;;;1.17;0.73;;;14.60;99.90;;;;;;4956964;28;20461;-71
2022/10/01 09:19:18;;;;;;;4.70;1.30;;;14.60;99.90;;;;;;4956361;29;20430;-71
2022/10/01 09:21:52;;;;;;;1.40;0.90;;;14.60;99.90;;;;;;4941031;29;20783;-71
2022/10/01 09:24:39;;;;;;;2.50;1.30;;;14.60;99.90;;;;;;4956965;29;20513;-71
2022/10/01 09:27:24;;;;;;;1.50;1.10;;;14.60;99.90;;;;;;4940879;29;20438;-71
2022/10/01 09:30:03;;;;;;;1.87;1.00;;;14.60;99.90;;;;;;4956544;29;20537;-71
2022/10/01 09:32:46;;;;;;;1.20;1.00;;;14.60;99.90;;;;;;4957870;28;20403;-71
2022/10/01 09:35:36;;;;;;;1.90;1.40;;;14.60;99.90;;;;;;4940541;29;20417;-71
2022/10/01 09:38:32;;;;;;;2.10;1.00;;;14.60;99.90;;;;;;4941040;29;20434;-71
2022/10/01 09:41:03;;;;;;;2.07;1.30;;;14.60;99.90;;;;;;4956638;28;20493;-71
2022/10/01 09:43:37;;;;;;;1.37;1.23;;;14.60;99.90;;;;;;4955890;28;20434;-71
2022/10/01 09:46:11;;;;;;;1.10;0.97;;;14.60;99.90;;;;;;4956046;29;20537;-71
2022/10/01 09:49:26;;;;;;;1.37;0.93;;;14.60;99.90;;;;;;4942392;29;20477;-71
2022/10/01 09:52:25;;;;;;;2.13;1.20;;;14.70;99.90;;;;;;4957493;28;20409;-71
2022/10/01 09:55:19;;;;;;;1.20;1.00;;;14.70;99.90;;;;;;4940636;29;20534;-71
2022/10/01 09:58:13;;;;;;;1.80;1.30;;;14.70;99.90;;;;;;4957440;28;20412;-72
2022/10/01 10:01:00;;;;;;;1.43;1.30;;;14.70;99.90;;;;;;4955971;29;20451;-71
2022/10/01 10:03:31;;;;;;;2.77;1.10;;;14.70;99.90;;;;;;4940524;29;20458;-71
2022/10/01 10:06:03;;;;;;;2.07;1.47;;;14.70;99.90;;;;;;4957041;29;20435;-71
2022/10/01 10:08:39;;;;;;;2.40;1.33;;;14.70;99.90;;;;;;4955879;28;20463;-72
2022/10/01 10:11:09;;;;;;;1.40;1.10;;;14.70;99.90;;;;;;4939767;29;20448;-71
2022/10/01 10:13:59;;;;;;;1.87;1.13;;;14.70;99.90;;;;;;4940146;29;20510;-71
2022/10/01 10:16:34;;;;;;;2.07;1.03;;;14.70;99.90;;;;;;4924748;29;20474;-72
2022/10/01 10:19:16;;;;;;;2.30;1.30;;;14.70;99.90;;;;;;4940307;29;20458;-71
2022/10/01 10:22:12;;;;;;;2.73;1.10;;;14.70;99.90;;;;;;4955714;29;20437;-71
2022/10/01 10:24:38;;;;;;;1.73;1.10;;;14.70;99.90;;;;;;4955365;28;20456;-71
2022/10/01 10:27:19;;;;;;;1.20;1.10;;;14.70;99.90;;;;;;4956799;28;20442;-71
2022/10/01 10:30:01;;;;;;;1.40;1.10;;;14.80;99.90;;;;;;4955411;29;21010;-71
2022/10/01 10:32:28;;;;;;;2.27;1.20;;;14.80;99.90;;;;;;4956810;28;20477;-71
2022/10/01 10:35:30;;;;;;;2.50;1.53;;;14.80;99.90;;;;;;4956336;29;20500;-71
2022/10/01 10:38:24;;;;;;;2.40;1.50;;;14.80;99.90;;;;;;4968148;28;20463;-71
2022/10/01 10:40:52;;;;;;;2.10;1.30;;;14.80;99.90;;;;;;4955475;28;20455;-72
2022/10/01 10:43:24;;;;;;;2.10;1.40;;;14.90;99.90;;;;;;4939579;29;20464;-71
2022/10/01 10:45:54;;;;;;;2.63;1.13;;;14.80;99.90;;;;;;4955328;28;20474;-71
2022/10/01 10:48:24;;;;;;;2.27;1.50;;;14.90;99.90;;;;;;4955012;29;20505;-71
2022/10/01 10:50:59;;;;;;;3.73;1.50;;;14.90;99.90;;;;;;4923670;29;20503;-72
2022/10/01 10:53:27;;;;;;;2.03;1.27;;;14.90;99.90;;;;;;4971052;28;20444;-71
2022/10/01 10:56:05;;;;;;;2.10;1.70;;;15.00;99.90;;;;;;4938282;29;20820;-71
2022/10/01 10:59:07;;;;;;;3.63;1.70;;;14.90;99.90;;;;;;4941526;29;20452;-72
2022/10/01 11:01:41;;;;;;;2.67;1.57;;;15.00;99.90;;;;;;4955200;29;20470;-71
2022/10/01 11:04:25;;;;;;;3.07;1.87;;;15.00;99.90;;;;;;4956064;28;20433;-71
2022/10/01 11:07:02;;;;;;;2.93;1.67;;;15.00;99.90;;;;;;4955859;28;20451;-72
2022/10/01 11:09:53;;;;;;;3.10;1.80;;;15.00;99.90;;;;;;4954742;29;20979;-71
2022/10/01 11:12:42;;;;;;;4.03;2.17;;;15.00;99.90;;;;;;4954726;29;20417;-71
2022/10/01 11:15:11;;;;;;;3.10;2.10;;;15.00;99.90;;;;;;4954659;29;20407;-72
2022/10/01 11:17:55;;;;;;;3.27;2.03;;;15.00;99.90;;;;;;4939209;29;20994;-71
2022/10/01 11:20:49;;;;;;;5.33;1.77;;;15.10;99.90;;;;;;4954595;29;20897;-71
2022/10/01 11:23:26;;;;;;;4.60;3.00;;;15.10;99.90;;;;;;4955605;28;20468;-72
2022/10/01 11:26:15;;;;;;;5.13;2.80;;;15.10;99.90;;;;;;4938483;29;20447;-72
2022/10/01 11:28:50;;;;;;;4.20;2.90;;;15.20;99.90;;;;;;4954366;29;21157;-72
2022/10/01 11:31:54;;;;;;;3.00;2.70;;;15.20;99.90;;;;;;4967215;28;20428;-70
2022/10/01 11:34:42;;;;;;;5.63;2.90;;;15.20;99.90;;;;;;4952800;29;20805;-70
2022/10/01 11:37:11;;;;;;;5.77;2.77;;;15.20;99.90;;;;;;4942829;29;20443;-70
2022/10/01 11:39:46;;;;;;;2.50;2.30;;;15.20;99.90;;;;;;4942320;29;20450;-70
2022/10/01 11:42:35;;;;;;;4.33;3.20;;;15.30;99.90;;;;;;4941655;29;20876;-70
2022/10/01 11:45:24;;;;;;;7.63;3.60;;;15.30;99.90;;;;;;4942863;29;20415;-70
2022/10/01 11:47:58;;;;;;;5.20;3.97;;;15.30;99.90;;;;;;4953722;28;20431;-69
2022/10/01 11:50:32;;;;;;;5.10;3.20;;;15.30;99.90;;;;;;4940703;29;20498;-70
2022/10/01 11:53:19;;;;;;;10.37;4.30;;;15.30;99.90;;;;;;4929498;29;20836;-70
2022/10/01 11:59:30;;;;;;;6.33;2.77;;;15.40;99.90;;;;;;4940611;29;20480;-70
2022/10/01 12:02:06;;;;;;;4.50;2.50;;;15.40;99.90;;;;;;4941877;29;20434;-70
2022/10/01 12:04:46;;;;;;;10.10;3.13;;;15.40;99.90;;;;;;4952932;29;20449;-70
2022/10/01 12:07:25;;;;;;;5.70;3.83;;;15.40;99.90;;;;;;4945686;28;20454;-70
2022/10/01 12:10:03;;;;;;;5.93;3.30;;;15.50;99.90;;;;;;4936141;29;20576;-69
2022/10/01 12:12:48;;;;;;;4.60;2.90;;;15.50;99.90;;;;;;4930608;29;20432;-70
2022/10/01 12:15:22;;;;;;;4.50;2.80;;;15.50;99.90;;;;;;4927550;29;20440;-70
2022/10/01 12:18:14;;;;;;;5.87;3.03;;;15.50;99.90;;;;;;4952263;29;20399;-69
2022/10/01 12:20:46;;;;;;;7.60;3.53;;;15.60;99.90;;;;;;4952701;28;20481;-70
2022/10/01 12:23:26;;;;;;;7.10;2.70;;;15.50;99.90;;;;;;4952774;28;20874;-70
2022/10/01 12:26:42;;;;;;;4.50;2.87;;;15.50;99.90;;;;;;4937558;29;20822;-69
2022/10/01 12:29:11;;;;;;;7.43;3.27;;;15.60;99.90;;;;;;4926152;29;20475;-70
2022/10/01 12:32:09;;;;;;;6.93;3.17;;;15.60;99.90;;;;;;4936316;29;20483;-70
2022/10/01 12:34:52;;;;;;;6.30;2.80;;;15.60;99.90;;;;;;4962994;28;20476;-70
2022/10/01 12:37:53;;;;;;;5.67;2.30;;;15.60;99.90;;;;;;4947952;29;20757;-70
2022/10/01 12:41:06;;;;;;;8.90;3.10;;;15.60;99.90;;;;;;4943971;29;20428;-70
2022/10/01 12:43:59;;;;;;;7.37;2.43;;;15.60;99.90;;;;;;4951285;29;20427;-70
2022/10/01 12:46:48;;;;;;;4.43;2.73;;;15.60;99.90;;;;;;4947851;28;20833;-70
2022/10/01 12:49:23;;;;;;;3.77;2.43;;;15.60;99.90;;;;;;4948781;29;20526;-70
2022/10/01 12:52:12;;;;;;;5.53;2.60;;;15.60;99.90;;;;;;4968167;28;20402;-70
2022/10/01 12:55:12;;;;;;;4.67;2.67;;;15.60;99.90;;;;;;4931997;29;20521;-70
2022/10/01 12:57:50;;;;;;;7.23;2.83;;;15.60;99.90;;;;;;4933611;29;20463;-70
2022/10/01 13:00:21;;;;;;;8.63;2.90;;;15.60;99.90;;;;;;4941680;29;20447;-70
2022/10/01 13:03:05;;;;;;;5.07;2.50;;;15.60;99.90;;;;;;4951948;28;20493;-70
2022/10/01 13:05:52;;;;;;;6.13;2.50;;;15.70;99.90;;;;;;4942408;28;20452;-70
2022/10/01 13:08:37;;;;;;;5.33;2.20;;;15.70;99.90;;;;;;4933622;29;20542;-70
2022/10/01 13:11:27;;;;;;;10.13;3.73;;;15.70;99.90;;;;;;4934520;28;20433;-70
2022/10/01 13:13:55;;;;;;;3.47;2.50;;;15.70;99.90;;;;;;4933069;29;20519;-70
2022/10/01 13:16:21;;;;;;;6.20;2.53;;;15.70;99.90;;;;;;4932938;29;20955;-69
2022/10/01 13:18:52;;;;;;;7.40;3.03;;;15.70;99.90;;;;;;4936013;29;20447;-70
2022/10/01 13:21:48;;;;;;;7.57;2.80;;;15.80;99.90;;;;;;4953798;29;20439;-70
2022/10/01 13:24:26;;;;;;;6.53;2.60;;;15.80;99.90;;;;;;4971089;28;20432;-70
2022/10/01 13:26:55;;;;;;;7.70;2.40;;;15.80;99.90;;;;;;4952190;29;20489;-70
2022/10/01 13:29:34;;;;;;;5.03;2.50;;;15.80;99.90;;;;;;4936219;29;20456;-70
2022/10/01 13:32:24;;;;;;;7.80;2.73;;;15.80;99.90;;;;;;4936276;29;20417;-70
2022/10/01 13:34:51;;;;;;;6.17;3.27;;;15.80;99.90;;;;;;4941621;29;20445;-70
2022/10/01 13:37:38;;;;;;;8.13;3.40;;;15.80;99.90;;;;;;4955267;28;20430;-69